createdAt,value
2018-04-14T00:01:22.751Z,93903.16
2018-04-14T00:03:51.199Z,93906.08
2018-04-14T00:06:19.714Z,93903.48
2018-04-14T00:08:48.177Z,93901.15
2018-04-14T00:11:16.605Z,93910.02
2018-04-14T00:13:45.179Z,93906.78
2018-04-14T00:16:15.720Z,93901.64
2018-04-14T00:18:44.124Z,93906.80
2018-04-14T00:21:12.616Z,93910.19
2018-04-14T00:23:41.542Z,93903.37
2018-04-14T00:26:12.156Z,93917.83
2018-04-14T00:28:42.812Z,93911.91
2018-04-14T00:31:11.234Z,93914.97
2018-04-14T00:33:39.673Z,93914.11
2018-04-14T00:36:08.167Z,93911.49
2018-04-14T00:38:36.592Z,93914.59
2018-04-14T00:41:05.020Z,93920.07
2018-04-14T00:43:33.459Z,93918.48
2018-04-14T00:46:01.876Z,93919.95
2018-04-14T00:48:30.316Z,93919.25
2018-04-14T00:51:00.890Z,93919.05
2018-04-14T00:53:35.562Z,93920.61
2018-04-14T00:56:04.041Z,93922.70
2018-04-14T00:58:34.207Z,93920.68
2018-04-14T01:01:02.638Z,93926.19
2018-04-14T01:03:31.058Z,93913.44
2018-04-14T01:06:01.519Z,93918.83
2018-04-14T01:08:32.019Z,93912.66
2018-04-14T01:11:00.556Z,93910.52
2018-04-14T01:13:30.799Z,93915.98
2018-04-14T01:16:01.260Z,93918.39
2018-04-14T01:18:30.962Z,93922.87
2018-04-14T01:20:59.391Z,93922.64
2018-04-14T01:23:27.817Z,93926.48
2018-04-14T01:25:56.277Z,93927.97
2018-04-14T01:28:26.767Z,93927.66
2018-04-14T01:30:55.216Z,93932.27
2018-04-14T01:33:23.627Z,93932.22
2018-04-14T01:35:52.167Z,93935.51
2018-04-14T01:38:20.587Z,93933.64
2018-04-14T01:40:49.004Z,93939.33
2018-04-14T01:43:17.487Z,93937.78
2018-04-14T01:45:45.906Z,93937.12
2018-04-14T01:48:14.690Z,93935.19
2018-04-14T01:50:43.104Z,93937.25
2018-04-14T01:53:13.193Z,93937.58
2018-04-14T01:55:43.766Z,93935.78
2018-04-14T01:58:12.503Z,93938.64
2018-04-14T02:00:40.899Z,93940.45
2018-04-14T02:03:10.111Z,93943.70
2018-04-14T02:05:38.768Z,93938.48
2018-04-14T02:08:09.320Z,93932.08
2018-04-14T02:10:37.811Z,93939.16
2018-04-14T02:13:06.257Z,93937.62
2018-04-14T02:15:34.687Z,93943.47
2018-04-14T02:18:03.172Z,93941.59
2018-04-14T02:20:32.298Z,93942.50
2018-04-14T02:23:02.703Z,93942.75
2018-04-14T02:25:34.874Z,93932.66
2018-04-14T02:28:03.412Z,93935.81
2018-04-14T02:30:31.833Z,93933.63
2018-04-14T02:33:00.235Z,93938.09
2018-04-14T02:35:28.694Z,93936.48
2018-04-14T02:37:57.096Z,93937.11
2018-04-14T02:40:25.633Z,93937.59
2018-04-14T02:42:56.020Z,93937.42
2018-04-14T02:45:24.428Z,93932.70
2018-04-14T02:47:54.315Z,93929.88
2018-04-14T02:50:22.732Z,93929.22
2018-04-14T02:52:51.163Z,93925.74
2018-04-14T02:55:23.768Z,93930.05
2018-04-14T02:57:55.368Z,93923.80
2018-04-14T03:00:23.831Z,93932.89
2018-04-14T03:02:52.287Z,93932.08
2018-04-14T03:05:20.691Z,93931.41
2018-04-14T03:07:52.897Z,93934.32
2018-04-14T03:10:21.339Z,93937.67
2018-04-14T03:12:51.743Z,93935.56
2018-04-14T03:15:22.299Z,93934.75
2018-04-14T03:17:52.779Z,93939.03
2018-04-14T03:20:21.182Z,93943.52
2018-04-14T03:22:50.030Z,93944.53
2018-04-14T03:25:20.416Z,93948.49
2018-04-14T03:27:49.469Z,93945.39
2018-04-14T03:30:17.915Z,93939.75
2018-04-14T03:32:46.315Z,93947.08
2018-04-14T03:35:14.852Z,93952.95
2018-04-14T03:37:43.267Z,93954.98
2018-04-14T03:40:11.908Z,93955.80
2018-04-14T03:42:40.343Z,93953.44
2018-04-14T03:45:14.312Z,93951.21
2018-04-14T03:47:42.715Z,93954.32
2018-04-14T03:50:11.404Z,93947.08
2018-04-14T03:52:39.811Z,93954.66
2018-04-14T03:55:10.306Z,93954.33
2018-04-14T03:57:38.779Z,93960.04
2018-04-14T04:00:07.195Z,93960.75
2018-04-14T04:02:37.791Z,93966.37
2018-04-14T04:05:06.209Z,93974.41
2018-04-14T04:07:34.671Z,93967.75
2018-04-14T04:10:03.177Z,93973.52
2018-04-14T04:12:33.172Z,93980.35
2018-04-14T04:15:05.579Z,93979.94
2018-04-14T04:17:34.045Z,93981.63
2018-04-14T04:20:08.724Z,93988.23
2018-04-14T04:22:43.275Z,93986.59
2018-04-14T04:25:26.443Z,93988.72
2018-04-14T04:27:55.804Z,93987.01
2018-04-14T04:30:27.830Z,93993.17
2018-04-14T04:32:58.924Z,93992.92
2018-04-14T04:35:27.258Z,93993.14
2018-04-14T04:37:56.151Z,93995.93
2018-04-14T04:40:24.499Z,93995.08
2018-04-14T04:42:55.016Z,93995.03
2018-04-14T04:45:23.320Z,93995.30
2018-04-14T04:47:51.623Z,94000.05
2018-04-14T04:50:19.979Z,94006.07
2018-04-14T04:52:51.747Z,94003.92
2018-04-14T04:55:22.072Z,94010.98
2018-04-14T04:57:50.411Z,94018.88
2018-04-14T05:00:18.750Z,94021.61
2018-04-14T05:02:47.090Z,94022.66
2018-04-14T05:05:15.503Z,94024.44
2018-04-14T05:07:44.175Z,94026.26
2018-04-14T05:10:12.432Z,94037.63
2018-04-14T05:12:42.267Z,94034.06
2018-04-14T05:15:10.638Z,94041.41
2018-04-14T05:17:38.984Z,94047.27
2018-04-14T05:20:07.293Z,94047.62
2018-04-14T05:22:36.136Z,94048.94
2018-04-14T05:25:04.463Z,94045.95
2018-04-14T05:27:33.135Z,94048.87
2018-04-14T05:30:01.452Z,94047.02
2018-04-14T05:32:29.780Z,94041.11
2018-04-14T05:34:58.928Z,94053.68
2018-04-14T05:37:27.246Z,94049.84
2018-04-14T05:39:57.118Z,94058.24
2018-04-14T05:42:26.435Z,94058.25
2018-04-14T05:44:57.054Z,94062.51
2018-04-14T05:47:28.025Z,94064.62
2018-04-14T05:49:57.987Z,94058.27
2018-04-14T05:52:26.684Z,94059.16
2018-04-14T05:54:55.075Z,94057.99
2018-04-14T05:57:23.402Z,94063.97
2018-04-14T05:59:53.043Z,94064.14
2018-04-14T06:02:21.435Z,94070.15
2018-04-14T06:04:53.358Z,94072.27
2018-04-14T06:07:21.797Z,94071.00
2018-04-14T06:09:50.568Z,94082.31
2018-04-14T06:12:18.887Z,94080.77
2018-04-14T06:14:47.288Z,94087.50
2018-04-14T06:17:18.750Z,94094.09
2018-04-14T06:19:48.574Z,94097.45
2018-04-14T06:22:20.322Z,94097.94
2018-04-14T06:24:48.588Z,94105.59
2018-04-14T06:27:18.201Z,94102.89
2018-04-14T06:29:48.203Z,94105.57
2018-04-14T06:32:16.605Z,94106.36
2018-04-14T06:34:44.975Z,94105.73
2018-04-14T06:37:13.351Z,94107.47
2018-04-14T06:39:41.675Z,94107.44
2018-04-14T06:42:09.993Z,94104.61
2018-04-14T06:44:38.355Z,94104.71
2018-04-14T06:47:06.988Z,94105.87
2018-04-14T06:49:36.732Z,94109.16
2018-04-14T06:52:05.056Z,94113.14
2018-04-14T06:54:33.432Z,94117.27
2018-04-14T06:57:02.815Z,94115.34
2018-04-14T06:59:34.028Z,94114.78
2018-04-14T07:02:02.658Z,94117.36
2018-04-14T07:04:30.983Z,94110.26
2018-04-14T07:07:00.812Z,94111.73
2018-04-14T07:09:29.158Z,94112.65
2018-04-14T07:11:56.523Z,94108.32
2018-04-14T07:14:27.266Z,94111.53
2018-04-14T07:16:55.593Z,94111.77
2018-04-14T07:19:23.947Z,94113.67
2018-04-14T07:21:52.232Z,94118.38
2018-04-14T07:24:20.551Z,94124.62
2018-04-14T07:26:49.068Z,94127.45
2018-04-14T07:29:17.305Z,94122.41
2018-04-14T07:31:46.668Z,94118.50
2018-04-14T07:34:15.247Z,94114.59
2018-04-14T07:36:43.565Z,94117.19
2018-04-14T07:39:13.380Z,94119.58
2018-04-14T07:41:43.258Z,94111.53
2018-04-14T07:44:11.626Z,94113.11
2018-04-14T07:46:39.969Z,94112.58
2018-04-14T07:49:08.298Z,94115.28
2018-04-14T07:51:38.133Z,94115.59
2018-04-14T07:54:06.442Z,94122.33
2018-04-14T07:56:34.731Z,94125.28
2018-04-14T07:59:04.158Z,94125.58
2018-04-14T08:01:32.478Z,94124.59
2018-04-14T08:04:00.775Z,94128.22
2018-04-14T08:06:30.247Z,94132.26
2018-04-14T08:08:58.601Z,94137.45
2018-04-14T08:11:28.372Z,94144.41
2018-04-14T08:13:57.738Z,94144.34
2018-04-14T08:16:26.075Z,94137.27
2018-04-14T08:18:55.840Z,94143.61
2018-04-14T08:21:24.212Z,94142.24
2018-04-14T08:23:52.528Z,94144.34
2018-04-14T08:26:20.799Z,94139.61
2018-04-14T08:28:49.527Z,94144.41
2018-04-14T08:31:17.934Z,94145.84
2018-04-14T08:33:46.264Z,94142.77
2018-04-14T08:36:16.784Z,94138.74
2018-04-14T08:38:46.838Z,94142.52
2018-04-14T08:41:16.216Z,94139.55
2018-04-14T08:43:44.636Z,94138.78
2018-04-14T08:46:12.963Z,94136.54
2018-04-14T08:48:41.294Z,94140.12
2018-04-14T08:51:09.679Z,94141.09
2018-04-14T08:53:36.920Z,94138.08
2018-04-14T08:56:05.956Z,94148.62
2018-04-14T08:58:35.474Z,94144.70
2018-04-14T09:01:03.855Z,94134.97
2018-04-14T09:03:31.061Z,94133.48
2018-04-14T09:05:59.596Z,94123.52
2018-04-14T09:08:26.808Z,94124.95
2018-04-14T09:10:55.068Z,94122.92
2018-04-14T09:13:23.420Z,94124.98
2018-04-14T09:15:51.373Z,94130.24
2018-04-14T09:18:19.847Z,94120.72
2018-04-14T09:20:49.307Z,94116.02
2018-04-14T09:23:17.724Z,94116.19
2018-04-14T09:25:46.176Z,94118.31
2018-04-14T09:28:14.598Z,94114.05
2018-04-14T09:30:42.252Z,94104.77
2018-04-14T09:33:10.640Z,94108.98
2018-04-14T09:35:38.694Z,94113.57
2018-04-14T09:38:08.150Z,94110.84
2018-04-14T09:40:36.589Z,94115.97
2018-04-14T09:43:04.097Z,94112.12
2018-04-14T09:45:33.740Z,94120.19
2018-04-14T09:48:02.139Z,94116.95
2018-04-14T09:50:30.607Z,94109.72
2018-04-14T09:53:01.370Z,94107.34
2018-04-14T09:55:28.738Z,94106.59
2018-04-14T09:57:58.660Z,94101.02
2018-04-14T10:00:28.191Z,94106.48
2018-04-14T10:02:59.694Z,94101.36
2018-04-14T10:05:28.191Z,94103.80
2018-04-14T10:07:55.567Z,94097.84
2018-04-14T10:10:26.135Z,94099.63
2018-04-14T10:12:54.542Z,94095.44
2018-04-14T10:15:22.922Z,94097.95
2018-04-14T10:17:51.315Z,94089.83
2018-04-14T10:20:20.927Z,94092.22
2018-04-14T10:22:49.344Z,94089.74
2018-04-14T10:25:18.804Z,94085.63
2018-04-14T10:27:48.293Z,94084.44
2018-04-14T10:30:19.850Z,94092.68
2018-04-14T10:32:48.331Z,94084.51
2018-04-14T10:35:15.676Z,94085.57
2018-04-14T10:37:44.136Z,94083.03
2018-04-14T10:40:12.639Z,94083.36
2018-04-14T10:42:41.103Z,94091.19
2018-04-14T10:45:09.172Z,94085.02
2018-04-14T10:47:38.733Z,94081.47
2018-04-14T10:50:07.147Z,94077.00
2018-04-14T10:52:35.599Z,94071.66
2018-04-14T10:55:05.050Z,94071.64
2018-04-14T10:57:33.528Z,94066.25
2018-04-14T11:00:00.904Z,94072.88
2018-04-14T11:02:29.358Z,94056.10
2018-04-14T11:04:57.795Z,94065.23
2018-04-14T11:07:26.379Z,94050.95
2018-04-14T11:09:54.823Z,94056.59
2018-04-14T11:12:23.232Z,94049.58
2018-04-14T11:14:51.727Z,94053.88
2018-04-14T11:17:20.135Z,94069.17
2018-04-14T11:19:48.591Z,94069.16
2018-04-14T11:22:18.043Z,94067.02
2018-04-14T11:24:46.464Z,94060.16
2018-04-14T11:27:15.908Z,94059.05
2018-04-14T11:29:44.416Z,94062.46
2018-04-14T11:32:12.831Z,94053.34
2018-04-14T11:34:41.643Z,94052.45
2018-04-14T11:37:10.603Z,94058.50
2018-04-14T11:39:39.049Z,94051.73
2018-04-14T11:42:08.726Z,94055.77
2018-04-14T11:44:37.190Z,94052.24
2018-04-14T11:47:05.607Z,94052.14
2018-04-14T11:49:34.052Z,94043.53
2018-04-14T11:52:03.541Z,94048.55
2018-04-14T11:54:32.072Z,94057.42
2018-04-14T11:57:00.525Z,94059.78
2018-04-14T11:59:29.960Z,94066.05
2018-04-14T12:01:58.410Z,94066.94
2018-04-14T12:04:26.798Z,94056.40
2018-04-14T12:06:56.392Z,94056.17
2018-04-14T12:09:25.431Z,94060.20
2018-04-14T12:11:53.867Z,94055.94
2018-04-14T12:14:22.314Z,94059.40
2018-04-14T12:16:50.735Z,94062.47
2018-04-14T12:19:19.139Z,94075.39
2018-04-14T12:21:47.596Z,94075.45
2018-04-14T12:24:17.072Z,94084.93
2018-04-14T12:26:45.476Z,94079.52
2018-04-14T12:29:13.912Z,94084.31
2018-04-14T12:31:42.310Z,94073.66
2018-04-14T12:34:10.771Z,94063.27
2018-04-14T12:36:40.242Z,94070.95
2018-04-14T12:39:09.709Z,94079.56
2018-04-14T12:41:39.653Z,94074.52
2018-04-14T12:44:08.087Z,94061.54
2018-04-14T12:46:37.510Z,94061.80
2018-04-14T12:49:07.447Z,94057.91
2018-04-14T12:51:35.881Z,94062.14
2018-04-14T12:54:04.272Z,94069.79
2018-04-14T12:56:32.747Z,94067.39
2018-04-14T12:59:01.199Z,94068.70
2018-04-14T13:01:29.700Z,94063.89
2018-04-14T13:03:58.131Z,94069.03
2018-04-14T13:06:26.564Z,94054.77
2018-04-14T13:08:54.943Z,94048.99
2018-04-14T13:11:23.387Z,94056.16
2018-04-14T13:13:51.843Z,94049.77
2018-04-14T13:16:20.295Z,94056.36
2018-04-14T13:18:48.682Z,94049.69
2018-04-14T13:21:17.120Z,94050.88
2018-04-14T13:23:45.574Z,94047.00
2018-04-14T13:26:14.004Z,94040.31
2018-04-14T13:28:43.633Z,94030.05
2018-04-14T13:31:12.092Z,94022.70
2018-04-14T13:33:40.559Z,94019.02
2018-04-14T13:36:08.946Z,94012.41
2018-04-14T13:38:38.403Z,94000.30
2018-04-14T13:41:06.875Z,93994.61
2018-04-14T13:43:35.422Z,93990.84
2018-04-14T13:46:03.899Z,93989.35
2018-04-14T13:48:32.363Z,93996.21
2018-04-14T13:51:00.856Z,93988.76
2018-04-14T13:53:30.333Z,93974.84
2018-04-14T13:56:00.020Z,93965.18
2018-04-14T13:58:29.586Z,93975.26
2018-04-14T14:00:58.066Z,93965.00
2018-04-14T14:03:27.559Z,93967.53
2018-04-14T14:05:56.031Z,93961.08
2018-04-14T14:08:24.515Z,93961.23
2018-04-14T14:10:52.973Z,93951.52
2018-04-14T14:13:21.443Z,93944.23
2018-04-14T14:15:52.249Z,93943.19
2018-04-14T14:18:21.756Z,93943.58
2018-04-14T14:20:50.141Z,93928.69
2018-04-14T14:23:18.579Z,93941.03
2018-04-14T14:25:47.239Z,93942.97
2018-04-14T14:28:15.668Z,93943.43
2018-04-14T14:30:44.130Z,93936.30
2018-04-14T14:33:12.843Z,93937.75
2018-04-14T14:35:41.267Z,93936.35
2018-04-14T14:38:09.687Z,93934.91
2018-04-14T14:40:38.137Z,93932.56
2018-04-14T14:43:06.635Z,93929.50
2018-04-14T14:45:35.037Z,93924.11
2018-04-14T14:48:04.734Z,93932.16
2018-04-14T14:50:33.535Z,93925.53
2018-04-14T14:53:05.535Z,93919.30
2018-04-14T14:55:33.963Z,93925.30
2018-04-14T14:58:02.362Z,93924.20
2018-04-14T15:00:31.031Z,93920.09
2018-04-14T15:03:01.477Z,93924.55
2018-04-14T15:05:29.909Z,93924.78
2018-04-14T15:07:58.355Z,93915.58
2018-04-14T15:10:26.790Z,93912.75
2018-04-14T15:12:55.238Z,93914.66
2018-04-14T15:15:25.152Z,93911.72
2018-04-14T15:17:53.990Z,93906.00
2018-04-14T15:20:22.396Z,93903.44
2018-04-14T15:22:52.936Z,93910.90
2018-04-14T15:25:22.882Z,93916.00
2018-04-14T15:27:51.295Z,93910.05
2018-04-14T15:30:21.627Z,93915.09
2018-04-14T15:32:50.014Z,93909.23
2018-04-14T15:35:19.744Z,93910.56
2018-04-14T15:37:48.192Z,93911.77
2018-04-14T15:40:16.666Z,93909.70
2018-04-14T15:42:45.038Z,93910.18
2018-04-14T15:45:13.700Z,93912.06
2018-04-14T15:47:43.439Z,93910.39
2018-04-14T15:50:11.894Z,93908.02
2018-04-14T15:52:40.509Z,93907.28
2018-04-14T15:55:09.086Z,93907.82
2018-04-14T15:57:40.748Z,93913.88
2018-04-14T16:00:09.140Z,93906.20
2018-04-14T16:02:39.097Z,93907.34
2018-04-14T16:05:07.712Z,93905.34
2018-04-14T16:07:36.086Z,93909.66
2018-04-14T16:10:05.873Z,93898.33
2018-04-14T16:12:35.775Z,93904.75
2018-04-14T16:15:04.198Z,93897.42
2018-04-14T16:17:34.219Z,93897.45
2018-04-14T16:20:03.905Z,93895.90
2018-04-14T16:22:32.440Z,93900.38
2018-04-14T16:25:00.848Z,93895.18
2018-04-14T16:27:29.266Z,93898.53
2018-04-14T16:29:58.821Z,93897.27
2018-04-14T16:32:27.443Z,93899.80
2018-04-14T16:34:55.875Z,93904.90
2018-04-14T16:37:24.319Z,93904.55
2018-04-14T16:39:54.348Z,93903.86
2018-04-14T16:42:22.808Z,93911.30
2018-04-14T16:44:52.709Z,93910.13
2018-04-14T16:47:21.124Z,93911.53
2018-04-14T16:49:53.051Z,93909.55
2018-04-14T16:52:21.503Z,93905.52
2018-04-14T16:54:49.919Z,93900.96
2018-04-14T16:57:18.374Z,93889.69
2018-04-14T16:59:46.799Z,93888.98
2018-04-14T17:02:15.282Z,93889.39
2018-04-14T17:04:43.787Z,93885.52
2018-04-14T17:07:13.776Z,93891.20
2018-04-14T17:09:42.343Z,93886.85
2018-04-14T17:12:12.044Z,93889.86
2018-04-14T17:14:41.619Z,93886.56
2018-04-14T17:17:10.060Z,93890.66
2018-04-14T17:19:38.515Z,93896.95
2018-04-14T17:22:08.012Z,93888.86
2018-04-14T17:24:44.039Z,93883.39
2018-04-14T17:27:12.474Z,93886.41
2018-04-14T17:29:42.416Z,93884.62
2018-04-14T17:32:10.865Z,93880.72
2018-04-14T17:34:39.326Z,93886.81
2018-04-14T17:37:07.845Z,93882.75
2018-04-14T17:39:37.689Z,93879.03
2018-04-14T17:42:06.167Z,93877.16
2018-04-14T17:44:34.599Z,93877.56
2018-04-14T17:47:03.163Z,93883.92
2018-04-14T17:49:31.647Z,93889.64
2018-04-14T17:52:00.113Z,93894.14
2018-04-14T17:54:28.636Z,93897.06
2018-04-14T17:56:57.082Z,93895.05
2018-04-14T17:59:25.596Z,93892.50
2018-04-14T18:01:54.075Z,93894.83
2018-04-14T18:04:24.895Z,93893.94
2018-04-14T18:06:53.353Z,93899.88
2018-04-14T18:09:23.351Z,93899.25
2018-04-14T18:11:51.970Z,93898.50
2018-04-14T18:14:22.367Z,93906.48
2018-04-14T18:16:53.212Z,93899.13
2018-04-14T18:19:25.156Z,93894.97
2018-04-14T18:21:55.494Z,93894.55
2018-04-14T18:24:23.981Z,93903.08
2018-04-14T18:26:52.420Z,93903.09
2018-04-14T18:29:20.908Z,93914.66
2018-04-14T18:31:49.390Z,93917.98
2018-04-14T18:34:17.804Z,93911.44
2018-04-14T18:36:46.268Z,93919.12
2018-04-14T18:39:16.873Z,93925.70
2018-04-14T18:41:48.835Z,93923.78
2018-04-14T18:44:19.263Z,93920.26
2018-04-14T18:46:51.283Z,93917.08
2018-04-14T18:49:19.970Z,93918.73
2018-04-14T18:51:48.403Z,93915.25
2018-04-14T18:54:16.819Z,93930.38
2018-04-14T18:56:47.439Z,93934.16
2018-04-14T18:59:15.832Z,93933.14
2018-04-14T19:01:48.484Z,93938.79
2018-04-14T19:04:16.877Z,93940.31
2018-04-14T19:06:45.246Z,93936.77
2018-04-14T19:09:13.936Z,93940.33
2018-04-14T19:11:42.343Z,93944.52
2018-04-14T19:14:10.763Z,93938.08
2018-04-14T19:16:39.607Z,93939.69
2018-04-14T19:19:09.802Z,93933.08
2018-04-14T19:21:38.236Z,93939.93
2018-04-14T19:24:06.628Z,93942.83
2018-04-14T19:26:37.215Z,93939.86
2018-04-14T19:29:05.591Z,93940.70
2018-04-14T19:31:38.279Z,93940.09
2018-04-14T19:34:06.689Z,93944.52
2018-04-14T19:36:35.079Z,93937.95
2018-04-14T19:39:04.639Z,93938.31
2018-04-14T19:41:33.152Z,93937.77
2018-04-14T19:44:03.682Z,93939.66
2018-04-14T19:46:32.111Z,93930.91
2018-04-14T19:49:04.147Z,93931.88
2018-04-14T19:51:36.632Z,93933.61
2018-04-14T19:54:06.812Z,93936.23
2018-04-14T19:56:35.281Z,93928.19
2018-04-14T19:59:03.771Z,93938.73
2018-04-14T20:01:32.221Z,93935.30
2018-04-14T20:04:00.736Z,93933.88
2018-04-14T20:06:29.171Z,93932.74
2018-04-14T20:08:57.659Z,93929.73
2018-04-14T20:11:26.447Z,93922.80
2018-04-14T20:13:54.858Z,93921.58
2018-04-14T20:16:23.263Z,93923.98
2018-04-14T20:18:53.729Z,93918.27
2018-04-14T20:21:24.294Z,93916.54
2018-04-14T20:23:52.843Z,93914.31
2018-04-14T20:26:21.416Z,93908.48
2018-04-14T20:28:49.842Z,93905.12
2018-04-14T20:31:18.335Z,93904.94
2018-04-14T20:33:48.418Z,93902.34
2018-04-14T20:36:16.880Z,93896.50
2018-04-14T20:38:45.317Z,93898.72
2018-04-14T20:41:14.039Z,93882.28
2018-04-14T20:43:44.067Z,93883.70
2018-04-14T20:46:12.446Z,93877.20
2018-04-14T20:48:40.892Z,93873.92
2018-04-14T20:51:09.331Z,93867.25
2018-04-14T20:53:41.280Z,93858.69
2018-04-14T20:56:09.735Z,93859.19
2018-04-14T20:58:38.139Z,93854.91
2018-04-14T21:01:06.533Z,93855.59
2018-04-14T21:03:36.708Z,93854.73
2018-04-14T21:06:05.160Z,93851.56
2018-04-14T21:08:33.726Z,93855.39
2018-04-14T21:11:02.160Z,93846.67
2018-04-14T21:13:30.619Z,93845.05
2018-04-14T21:15:59.259Z,93839.98
2018-04-14T21:18:27.663Z,93836.95
2018-04-14T21:20:56.119Z,93837.77
2018-04-14T21:23:24.614Z,93825.86
2018-04-14T21:25:55.104Z,93829.45
2018-04-14T21:28:27.545Z,93830.09
2018-04-14T21:30:55.991Z,93830.52
2018-04-14T21:33:24.419Z,93827.13
2018-04-14T21:35:52.799Z,93831.11
2018-04-14T21:38:23.005Z,93831.89
2018-04-14T21:40:51.498Z,93828.85
2018-04-14T21:43:21.914Z,93835.75
2018-04-14T21:45:50.335Z,93830.11
2018-04-14T21:48:18.752Z,93830.34
2018-04-14T21:50:47.328Z,93829.06
2018-04-14T21:53:15.820Z,93825.90
2018-04-14T21:55:44.234Z,93822.84
2018-04-14T21:58:16.639Z,93819.05
2018-04-14T22:00:45.164Z,93825.16
2018-04-14T22:03:13.624Z,93824.05
2018-04-14T22:05:42.066Z,93830.84
2018-04-14T22:08:10.554Z,93816.47
2018-04-14T22:10:38.944Z,93823.36
2018-04-14T22:13:07.371Z,93823.25
2018-04-14T22:15:35.955Z,93814.47
2018-04-14T22:18:04.378Z,93818.11
2018-04-14T22:20:34.911Z,93818.20
2018-04-14T22:23:04.844Z,93813.25
2018-04-14T22:25:33.277Z,93816.48
2018-04-14T22:28:03.945Z,93808.70
2018-04-14T22:30:32.356Z,93807.58
2018-04-14T22:33:00.752Z,93806.28
2018-04-14T22:35:29.179Z,93801.31
2018-04-14T22:37:57.636Z,93808.60
2018-04-14T22:40:27.152Z,93796.88
2018-04-14T22:42:55.599Z,93809.41
2018-04-14T22:45:24.099Z,93807.99
2018-04-14T22:47:52.651Z,93815.48
2018-04-14T22:50:21.079Z,93814.21
2018-04-14T22:52:49.479Z,93817.86
2018-04-14T22:55:19.459Z,93813.00
2018-04-14T22:57:47.835Z,93809.56
2018-04-14T23:00:16.304Z,93806.10
2018-04-14T23:02:50.748Z,93801.33
2018-04-14T23:05:27.703Z,93792.72
2018-04-14T23:07:57.680Z,93793.77
2018-04-14T23:10:26.087Z,93789.94
2018-04-14T23:12:56.063Z,93787.31
2018-04-14T23:15:24.604Z,93783.65
2018-04-14T23:17:53.007Z,93782.65
2018-04-14T23:20:21.367Z,93780.94
2018-04-14T23:22:49.795Z,93774.94
2018-04-14T23:25:18.144Z,93776.83
2018-04-14T23:27:47.400Z,93777.90
2018-04-14T23:30:15.847Z,93777.56
2018-04-14T23:32:44.363Z,93770.88
2018-04-14T23:35:12.722Z,93759.77
2018-04-14T23:37:41.721Z,93755.52
2018-04-14T23:40:10.160Z,93755.48
2018-04-14T23:42:38.643Z,93749.73
2018-04-14T23:45:07.047Z,93749.98
2018-04-14T23:47:37.599Z,93748.58
2018-04-14T23:50:06.023Z,93753.80
2018-04-14T23:52:34.403Z,93753.59
2018-04-14T23:55:03.587Z,93752.28
2018-04-14T23:57:31.999Z,93756.09
